sensor_id;sensor_type;location;lat;lon;timestamp;temperature;humidity
6210;DHT22;3138;52.550;13.148;2022-11-15T00:01:32;5.50;99.90
6210;DHT22;3138;52.550;13.148;2022-11-15T00:03:59;5.40;99.90
6210;DHT22;3138;52.550;13.148;2022-11-15T00:06:27;5.30;99.90
6210;DHT22;3138;52.550;13.148;2022-11-15T00:08:54;5.20;99.90
6210;DHT22;3138;52.550;13.148;2022-11-15T00:11:21;5.10;99.90
6210;DHT22;3138;52.550;13.148;2022-11-15T00:13:48;5.30;99.90
6210;DHT22;3138;52.550;13.148;2022-11-15T00:16:15;5.30;99.90
6210;DHT22;3138;52.550;13.148;2022-11-15T00:18:42;5.30;99.90
6210;DHT22;3138;52.550;13.148;2022-11-15T00:21:11;5.10;99.90
6210;DHT22;3138;52.550;13.148;2022-11-15T00:23:39;5.00;99.90
6210;DHT22;3138;52.550;13.148;2022-11-15T00:26:06;5.00;99.90
6210;DHT22;3138;52.550;13.148;2022-11-15T00:28:33;4.90;99.90
6210;DHT22;3138;52.550;13.148;2022-11-15T00:31:01;5.00;99.90
6210;DHT22;3138;52.550;13.148;2022-11-15T00:33:28;4.90;99.90
6210;DHT22;3138;52.550;13.148;2022-11-15T00:36:00;4.80;99.90
6210;DHT22;3138;52.550;13.148;2022-11-15T00:38:30;4.80;99.90
6210;DHT22;3138;52.550;13.148;2022-11-15T00:40:59;4.90;99.90
6210;DHT22;3138;52.550;13.148;2022-11-15T00:43:26;4.80;99.90
6210;DHT22;3138;52.550;13.148;2022-11-15T00:45:53;4.60;99.90
6210;DHT22;3138;52.550;13.148;2022-11-15T00:48:20;4.60;99.90
6210;DHT22;3138;52.550;13.148;2022-11-15T00:50:48;4.50;99.90
6210;DHT22;3138;52.550;13.148;2022-11-15T00:53:15;4.60;99.90
6210;DHT22;3138;52.550;13.148;2022-11-15T00:55:42;4.70;99.90
6210;DHT22;3138;52.550;13.148;2022-11-15T00:58:10;4.50;99.90
6210;DHT22;3138;52.550;13.148;2022-11-15T01:00:37;4.30;99.90
6210;DHT22;3138;52.550;13.148;2022-11-15T01:03:04;4.30;99.90
6210;DHT22;3138;52.550;13.148;2022-11-15T01:05:31;4.30;99.90
6210;DHT22;3138;52.550;13.148;2022-11-15T01:07:57;4.30;99.90
6210;DHT22;3138;52.550;13.148;2022-11-15T01:10:24;4.30;99.90
6210;DHT22;3138;52.550;13.148;2022-11-15T01:12:51;4.30;99.90
6210;DHT22;3138;52.550;13.148;2022-11-15T01:15:20;4.40;99.90
6210;DHT22;3138;52.550;13.148;2022-11-15T01:17:46;4.30;99.90
6210;DHT22;3138;52.550;13.148;2022-11-15T01:20:13;4.20;99.90
6210;DHT22;3138;52.550;13.148;2022-11-15T01:22:40;4.20;99.90
6210;DHT22;3138;52.550;13.148;2022-11-15T01:25:07;4.30;99.90
6210;DHT22;3138;52.550;13.148;2022-11-15T01:27:34;4.20;99.90
6210;DHT22;3138;52.550;13.148;2022-11-15T01:30:01;4.30;99.90
6210;DHT22;3138;52.550;13.148;2022-11-15T01:32:29;4.30;99.90
6210;DHT22;3138;52.550;13.148;2022-11-15T01:34:56;4.40;99.90
6210;DHT22;3138;52.550;13.148;2022-11-15T01:37:23;4.40;99.90
6210;DHT22;3138;52.550;13.148;2022-11-15T01:39:49;4.50;99.90
6210;DHT22;3138;52.550;13.148;2022-11-15T01:42:16;4.50;99.90
6210;DHT22;3138;52.550;13.148;2022-11-15T01:44:47;4.50;99.90
6210;DHT22;3138;52.550;13.148;2022-11-15T01:47:16;4.50;99.90
6210;DHT22;3138;52.550;13.148;2022-11-15T01:49:50;4.50;99.90
6210;DHT22;3138;52.550;13.148;2022-11-15T01:52:20;4.40;99.90
6210;DHT22;3138;52.550;13.148;2022-11-15T01:54:51;4.30;99.90
6210;DHT22;3138;52.550;13.148;2022-11-15T01:57:19;4.30;99.90
6210;DHT22;3138;52.550;13.148;2022-11-15T01:59:47;4.30;99.90
6210;DHT22;3138;52.550;13.148;2022-11-15T02:02:14;4.50;99.90
6210;DHT22;3138;52.550;13.148;2022-11-15T02:04:42;4.50;99.90
6210;DHT22;3138;52.550;13.148;2022-11-15T02:07:13;4.50;99.90
6210;DHT22;3138;52.550;13.148;2022-11-15T02:09:41;4.50;99.90
6210;DHT22;3138;52.550;13.148;2022-11-15T02:12:10;4.40;99.90
6210;DHT22;3138;52.550;13.148;2022-11-15T02:14:38;4.40;99.90
6210;DHT22;3138;52.550;13.148;2022-11-15T02:17:16;4.40;99.90
6210;DHT22;3138;52.550;13.148;2022-11-15T02:23:00;4.50;99.90
6210;DHT22;3138;52.550;13.148;2022-11-15T02:25:38;4.50;99.90
6210;DHT22;3138;52.550;13.148;2022-11-15T02:31:07;4.40;99.90
6210;DHT22;3138;52.550;13.148;2022-11-15T02:33:43;4.60;99.90
6210;DHT22;3138;52.550;13.148;2022-11-15T02:36:21;4.40;99.90
6210;DHT22;3138;52.550;13.148;2022-11-15T02:38:57;4.50;99.90
6210;DHT22;3138;52.550;13.148;2022-11-15T02:41:29;4.60;99.90
6210;DHT22;3138;52.550;13.148;2022-11-15T02:44:01;4.40;99.90
6210;DHT22;3138;52.550;13.148;2022-11-15T02:46:33;4.30;99.90
6210;DHT22;3138;52.550;13.148;2022-11-15T02:49:19;4.30;99.90
6210;DHT22;3138;52.550;13.148;2022-11-15T02:51:47;4.40;99.90
6210;DHT22;3138;52.550;13.148;2022-11-15T02:54:20;4.30;99.90
6210;DHT22;3138;52.550;13.148;2022-11-15T02:56:47;4.20;99.90
6210;DHT22;3138;52.550;13.148;2022-11-15T02:59:58;4.10;99.90
6210;DHT22;3138;52.550;13.148;2022-11-15T03:02:57;4.20;99.90
6210;DHT22;3138;52.550;13.148;2022-11-15T03:05:35;4.10;99.90
6210;DHT22;3138;52.550;13.148;2022-11-15T03:08:09;4.10;99.90
6210;DHT22;3138;52.550;13.148;2022-11-15T03:10:44;4.00;99.90
6210;DHT22;3138;52.550;13.148;2022-11-15T03:13:21;4.10;99.90
6210;DHT22;3138;52.550;13.148;2022-11-15T03:15:56;4.10;99.90
6210;DHT22;3138;52.550;13.148;2022-11-15T03:18:32;4.20;99.90
6210;DHT22;3138;52.550;13.148;2022-11-15T03:21:03;4.20;99.90
6210;DHT22;3138;52.550;13.148;2022-11-15T03:23:32;4.20;99.90
6210;DHT22;3138;52.550;13.148;2022-11-15T03:26:00;4.20;99.90
6210;DHT22;3138;52.550;13.148;2022-11-15T03:28:31;4.10;99.90
6210;DHT22;3138;52.550;13.148;2022-11-15T03:30:59;4.20;99.90
6210;DHT22;3138;52.550;13.148;2022-11-15T03:33:29;4.20;99.90
6210;DHT22;3138;52.550;13.148;2022-11-15T03:35:57;4.10;99.90
6210;DHT22;3138;52.550;13.148;2022-11-15T03:38:26;4.20;99.90
6210;DHT22;3138;52.550;13.148;2022-11-15T03:41:00;4.20;99.90
6210;DHT22;3138;52.550;13.148;2022-11-15T03:43:32;4.30;99.90
6210;DHT22;3138;52.550;13.148;2022-11-15T03:46:04;4.30;99.90
6210;DHT22;3138;52.550;13.148;2022-11-15T03:48:37;4.30;99.90
6210;DHT22;3138;52.550;13.148;2022-11-15T03:51:06;4.30;99.90
6210;DHT22;3138;52.550;13.148;2022-11-15T03:53:33;4.30;99.90
6210;DHT22;3138;52.550;13.148;2022-11-15T03:56:00;4.20;99.90
6210;DHT22;3138;52.550;13.148;2022-11-15T03:58:27;4.30;99.90
6210;DHT22;3138;52.550;13.148;2022-11-15T04:00:54;4.40;99.90
6210;DHT22;3138;52.550;13.148;2022-11-15T04:03:21;4.30;99.90
6210;DHT22;3138;52.550;13.148;2022-11-15T04:05:49;4.30;99.90
6210;DHT22;3138;52.550;13.148;2022-11-15T04:08:16;4.30;99.90
6210;DHT22;3138;52.550;13.148;2022-11-15T04:10:42;4.30;99.90
6210;DHT22;3138;52.550;13.148;2022-11-15T04:13:09;4.30;99.90
6210;DHT22;3138;52.550;13.148;2022-11-15T04:15:36;4.20;99.90
6210;DHT22;3138;52.550;13.148;2022-11-15T04:18:04;4.10;99.90
6210;DHT22;3138;52.550;13.148;2022-11-15T04:20:31;4.20;99.90
6210;DHT22;3138;52.550;13.148;2022-11-15T04:23:18;4.20;99.90
6210;DHT22;3138;52.550;13.148;2022-11-15T04:26:11;4.20;99.90
6210;DHT22;3138;52.550;13.148;2022-11-15T04:28:38;4.30;99.90
6210;DHT22;3138;52.550;13.148;2022-11-15T04:31:26;4.30;99.90
6210;DHT22;3138;52.550;13.148;2022-11-15T04:33:53;4.30;99.90
6210;DHT22;3138;52.550;13.148;2022-11-15T04:36:21;4.20;99.90
6210;DHT22;3138;52.550;13.148;2022-11-15T04:39:07;4.20;99.90
6210;DHT22;3138;52.550;13.148;2022-11-15T04:41:33;4.20;99.90
6210;DHT22;3138;52.550;13.148;2022-11-15T04:44:00;4.20;99.90
6210;DHT22;3138;52.550;13.148;2022-11-15T04:46:27;4.20;99.90
6210;DHT22;3138;52.550;13.148;2022-11-15T04:48:54;4.10;99.90
6210;DHT22;3138;52.550;13.148;2022-11-15T04:51:21;4.10;99.90
6210;DHT22;3138;52.550;13.148;2022-11-15T04:53:48;4.10;99.90
6210;DHT22;3138;52.550;13.148;2022-11-15T04:56:16;4.00;99.90
6210;DHT22;3138;52.550;13.148;2022-11-15T04:58:43;4.00;99.90
6210;DHT22;3138;52.550;13.148;2022-11-15T05:01:12;3.90;99.90
6210;DHT22;3138;52.550;13.148;2022-11-15T05:03:40;3.90;99.90
6210;DHT22;3138;52.550;13.148;2022-11-15T05:06:25;4.00;99.90
6210;DHT22;3138;52.550;13.148;2022-11-15T05:08:52;3.90;99.90
6210;DHT22;3138;52.550;13.148;2022-11-15T05:11:20;3.90;99.90
6210;DHT22;3138;52.550;13.148;2022-11-15T05:13:47;3.90;99.90
6210;DHT22;3138;52.550;13.148;2022-11-15T05:16:14;3.80;99.90
6210;DHT22;3138;52.550;13.148;2022-11-15T05:18:41;3.80;99.90
6210;DHT22;3138;52.550;13.148;2022-11-15T05:21:10;3.90;99.90
6210;DHT22;3138;52.550;13.148;2022-11-15T05:23:38;4.00;99.90
6210;DHT22;3138;52.550;13.148;2022-11-15T05:26:06;3.80;99.90
6210;DHT22;3138;52.550;13.148;2022-11-15T05:28:35;3.90;99.90
6210;DHT22;3138;52.550;13.148;2022-11-15T05:31:03;3.80;99.90
6210;DHT22;3138;52.550;13.148;2022-11-15T05:33:31;3.90;99.90
6210;DHT22;3138;52.550;13.148;2022-11-15T05:36:05;3.90;99.90
6210;DHT22;3138;52.550;13.148;2022-11-15T05:38:34;3.80;99.90
6210;DHT22;3138;52.550;13.148;2022-11-15T05:41:01;3.90;99.90
6210;DHT22;3138;52.550;13.148;2022-11-15T05:43:30;3.90;99.90
6210;DHT22;3138;52.550;13.148;2022-11-15T05:45:59;4.00;99.90
6210;DHT22;3138;52.550;13.148;2022-11-15T05:48:26;4.10;99.90
6210;DHT22;3138;52.550;13.148;2022-11-15T05:50:53;4.00;99.90
6210;DHT22;3138;52.550;13.148;2022-11-15T05:53:21;3.90;99.90
6210;DHT22;3138;52.550;13.148;2022-11-15T05:55:49;3.80;99.90
6210;DHT22;3138;52.550;13.148;2022-11-15T05:58:16;3.90;99.90
6210;DHT22;3138;52.550;13.148;2022-11-15T06:00:43;3.90;99.90
6210;DHT22;3138;52.550;13.148;2022-11-15T06:03:12;3.90;99.90
6210;DHT22;3138;52.550;13.148;2022-11-15T06:05:39;3.80;99.90
6210;DHT22;3138;52.550;13.148;2022-11-15T06:08:06;3.70;99.90
6210;DHT22;3138;52.550;13.148;2022-11-15T06:10:33;3.70;99.90
6210;DHT22;3138;52.550;13.148;2022-11-15T06:13:02;3.80;99.90
6210;DHT22;3138;52.550;13.148;2022-11-15T06:15:29;3.90;99.90
6210;DHT22;3138;52.550;13.148;2022-11-15T06:17:56;3.70;99.90
6210;DHT22;3138;52.550;13.148;2022-11-15T06:20:25;3.60;99.90
6210;DHT22;3138;52.550;13.148;2022-11-15T06:22:56;3.60;99.90
6210;DHT22;3138;52.550;13.148;2022-11-15T06:25:23;3.70;99.90
6210;DHT22;3138;52.550;13.148;2022-11-15T06:27:51;3.70;99.90
6210;DHT22;3138;52.550;13.148;2022-11-15T06:30:18;3.70;99.90
6210;DHT22;3138;52.550;13.148;2022-11-15T06:32:45;3.60;99.90
6210;DHT22;3138;52.550;13.148;2022-11-15T06:35:12;3.60;99.90
6210;DHT22;3138;52.550;13.148;2022-11-15T06:37:40;3.80;99.90
6210;DHT22;3138;52.550;13.148;2022-11-15T06:40:09;3.80;99.90
6210;DHT22;3138;52.550;13.148;2022-11-15T06:42:36;3.70;99.90
6210;DHT22;3138;52.550;13.148;2022-11-15T06:45:03;3.70;99.90
6210;DHT22;3138;52.550;13.148;2022-11-15T06:47:30;3.70;99.90
6210;DHT22;3138;52.550;13.148;2022-11-15T06:49:57;3.80;99.90
6210;DHT22;3138;52.550;13.148;2022-11-15T06:52:24;3.80;99.90
6210;DHT22;3138;52.550;13.148;2022-11-15T06:54:52;3.80;99.90
6210;DHT22;3138;52.550;13.148;2022-11-15T06:57:19;3.70;99.90
6210;DHT22;3138;52.550;13.148;2022-11-15T06:59:46;3.90;99.90
6210;DHT22;3138;52.550;13.148;2022-11-15T07:02:13;4.00;99.90
6210;DHT22;3138;52.550;13.148;2022-11-15T07:04:40;4.20;99.90
6210;DHT22;3138;52.550;13.148;2022-11-15T07:07:07;4.20;99.90
6210;DHT22;3138;52.550;13.148;2022-11-15T07:09:34;4.30;99.90
6210;DHT22;3138;52.550;13.148;2022-11-15T07:12:02;4.50;99.90
6210;DHT22;3138;52.550;13.148;2022-11-15T07:14:29;4.50;99.90
6210;DHT22;3138;52.550;13.148;2022-11-15T07:16:56;4.50;99.90
6210;DHT22;3138;52.550;13.148;2022-11-15T07:19:23;4.60;99.90
6210;DHT22;3138;52.550;13.148;2022-11-15T07:21:49;4.70;99.90
6210;DHT22;3138;52.550;13.148;2022-11-15T07:24:16;4.70;99.90
6210;DHT22;3138;52.550;13.148;2022-11-15T07:26:43;4.80;99.90
6210;DHT22;3138;52.550;13.148;2022-11-15T07:29:11;4.90;99.90
6210;DHT22;3138;52.550;13.148;2022-11-15T07:31:38;5.00;99.90
6210;DHT22;3138;52.550;13.148;2022-11-15T07:34:05;5.10;99.90
6210;DHT22;3138;52.550;13.148;2022-11-15T07:36:32;5.20;99.90
6210;DHT22;3138;52.550;13.148;2022-11-15T07:38:59;5.30;99.90
6210;DHT22;3138;52.550;13.148;2022-11-15T07:41:26;5.30;99.90
6210;DHT22;3138;52.550;13.148;2022-11-15T07:43:53;5.40;99.90
6210;DHT22;3138;52.550;13.148;2022-11-15T07:46:21;5.40;99.90
6210;DHT22;3138;52.550;13.148;2022-11-15T07:48:48;5.50;99.90
6210;DHT22;3138;52.550;13.148;2022-11-15T07:51:16;5.60;99.90
6210;DHT22;3138;52.550;13.148;2022-11-15T07:53:43;5.80;99.90
6210;DHT22;3138;52.550;13.148;2022-11-15T07:56:11;5.80;99.90
6210;DHT22;3138;52.550;13.148;2022-11-15T07:58:38;5.90;99.90
6210;DHT22;3138;52.550;13.148;2022-11-15T08:01:06;6.00;99.90
6210;DHT22;3138;52.550;13.148;2022-11-15T08:03:35;6.10;99.90
6210;DHT22;3138;52.550;13.148;2022-11-15T08:06:02;6.20;99.90
6210;DHT22;3138;52.550;13.148;2022-11-15T08:08:29;6.20;99.90
6210;DHT22;3138;52.550;13.148;2022-11-15T08:10:57;6.30;99.90
6210;DHT22;3138;52.550;13.148;2022-11-15T08:13:24;6.40;99.90
6210;DHT22;3138;52.550;13.148;2022-11-15T08:15:51;6.40;99.90
6210;DHT22;3138;52.550;13.148;2022-11-15T08:18:18;6.60;99.90
6210;DHT22;3138;52.550;13.148;2022-11-15T08:20:46;6.60;99.90
6210;DHT22;3138;52.550;13.148;2022-11-15T08:23:13;6.70;99.90
6210;DHT22;3138;52.550;13.148;2022-11-15T08:25:40;6.70;99.90
6210;DHT22;3138;52.550;13.148;2022-11-15T08:28:08;6.80;99.90
6210;DHT22;3138;52.550;13.148;2022-11-15T08:30:38;7.00;99.90
6210;DHT22;3138;52.550;13.148;2022-11-15T08:33:10;7.00;99.90
6210;DHT22;3138;52.550;13.148;2022-11-15T08:35:38;7.00;99.90
6210;DHT22;3138;52.550;13.148;2022-11-15T08:38:06;7.10;99.90
6210;DHT22;3138;52.550;13.148;2022-11-15T08:40:33;7.10;99.90
6210;DHT22;3138;52.550;13.148;2022-11-15T08:43:00;7.20;99.90
6210;DHT22;3138;52.550;13.148;2022-11-15T08:45:28;7.30;99.90
6210;DHT22;3138;52.550;13.148;2022-11-15T08:47:55;7.40;99.90
6210;DHT22;3138;52.550;13.148;2022-11-15T08:50:22;7.40;99.90
6210;DHT22;3138;52.550;13.148;2022-11-15T08:52:49;7.50;99.90
6210;DHT22;3138;52.550;13.148;2022-11-15T08:55:17;7.60;99.90
6210;DHT22;3138;52.550;13.148;2022-11-15T08:57:44;7.70;99.90
6210;DHT22;3138;52.550;13.148;2022-11-15T09:00:12;7.80;99.90
6210;DHT22;3138;52.550;13.148;2022-11-15T09:02:39;7.80;99.90
6210;DHT22;3138;52.550;13.148;2022-11-15T09:05:07;7.90;99.90
6210;DHT22;3138;52.550;13.148;2022-11-15T09:07:34;7.90;99.90
6210;DHT22;3138;52.550;13.148;2022-11-15T09:10:01;8.00;99.90
6210;DHT22;3138;52.550;13.148;2022-11-15T09:12:30;8.00;99.90
6210;DHT22;3138;52.550;13.148;2022-11-15T09:14:57;8.20;99.90
6210;DHT22;3138;52.550;13.148;2022-11-15T09:17:24;8.30;99.90
6210;DHT22;3138;52.550;13.148;2022-11-15T09:19:50;8.40;99.90
6210;DHT22;3138;52.550;13.148;2022-11-15T09:22:18;8.40;99.90
6210;DHT22;3138;52.550;13.148;2022-11-15T09:24:45;8.60;99.90
6210;DHT22;3138;52.550;13.148;2022-11-15T09:27:11;8.60;99.90
6210;DHT22;3138;52.550;13.148;2022-11-15T09:29:40;8.70;99.90
6210;DHT22;3138;52.550;13.148;2022-11-15T09:32:07;8.70;99.90
6210;DHT22;3138;52.550;13.148;2022-11-15T09:34:33;8.80;99.90
6210;DHT22;3138;52.550;13.148;2022-11-15T09:37:00;8.80;99.90
6210;DHT22;3138;52.550;13.148;2022-11-15T09:39:27;8.90;99.90
6210;DHT22;3138;52.550;13.148;2022-11-15T09:44:56;9.00;99.90
6210;DHT22;3138;52.550;13.148;2022-11-15T09:47:38;9.10;99.90
6210;DHT22;3138;52.550;13.148;2022-11-15T09:50:10;9.10;99.90
6210;DHT22;3138;52.550;13.148;2022-11-15T09:52:41;9.20;99.90
6210;DHT22;3138;52.550;13.148;2022-11-15T09:55:10;9.30;99.90
6210;DHT22;3138;52.550;13.148;2022-11-15T09:57:44;9.30;99.90
6210;DHT22;3138;52.550;13.148;2022-11-15T10:00:17;9.40;99.90
6210;DHT22;3138;52.550;13.148;2022-11-15T10:03:06;9.50;99.90
6210;DHT22;3138;52.550;13.148;2022-11-15T10:05:38;9.50;99.90
6210;DHT22;3138;52.550;13.148;2022-11-15T10:08:13;9.60;99.90
6210;DHT22;3138;52.550;13.148;2022-11-15T10:10:55;9.60;99.90
6210;DHT22;3138;52.550;13.148;2022-11-15T10:13:26;9.70;99.90
6210;DHT22;3138;52.550;13.148;2022-11-15T10:16:00;9.70;99.90
6210;DHT22;3138;52.550;13.148;2022-11-15T10:18:35;9.80;99.90
6210;DHT22;3138;52.550;13.148;2022-11-15T10:21:09;9.80;99.90
6210;DHT22;3138;52.550;13.148;2022-11-15T10:23:40;10.00;99.90
6210;DHT22;3138;52.550;13.148;2022-11-15T10:26:09;10.00;99.90
6210;DHT22;3138;52.550;13.148;2022-11-15T10:28:37;10.00;99.90
6210;DHT22;3138;52.550;13.148;2022-11-15T10:31:22;10.10;99.90
6210;DHT22;3138;52.550;13.148;2022-11-15T10:33:49;10.10;1.00
6210;DHT22;3138;52.550;13.148;2022-11-15T10:36:22;10.20;1.00
6210;DHT22;3138;52.550;13.148;2022-11-15T10:38:58;10.30;1.00
6210;DHT22;3138;52.550;13.148;2022-11-15T10:41:37;10.30;1.00
6210;DHT22;3138;52.550;13.148;2022-11-15T10:44:28;10.40;1.00
6210;DHT22;3138;52.550;13.148;2022-11-15T10:47:21;10.40;1.00
6210;DHT22;3138;52.550;13.148;2022-11-15T10:49:55;10.50;99.90
6210;DHT22;3138;52.550;13.148;2022-11-15T10:52:22;10.60;99.90
6210;DHT22;3138;52.550;13.148;2022-11-15T10:54:52;10.70;99.90
6210;DHT22;3138;52.550;13.148;2022-11-15T10:57:22;10.70;99.90
6210;DHT22;3138;52.550;13.148;2022-11-15T10:59:54;10.70;99.90
6210;DHT22;3138;52.550;13.148;2022-11-15T11:02:32;10.80;99.90
6210;DHT22;3138;52.550;13.148;2022-11-15T11:05:00;10.90;99.90
6210;DHT22;3138;52.550;13.148;2022-11-15T11:07:30;10.90;99.90
6210;DHT22;3138;52.550;13.148;2022-11-15T11:09:59;10.90;99.90
6210;DHT22;3138;52.550;13.148;2022-11-15T11:12:30;10.90;99.90
6210;DHT22;3138;52.550;13.148;2022-11-15T11:14:59;10.90;54.80
6210;DHT22;3138;52.550;13.148;2022-11-15T11:17:34;11.00;45.50
6210;DHT22;3138;52.550;13.148;2022-11-15T11:20:08;11.10;63.50
6210;DHT22;3138;52.550;13.148;2022-11-15T11:22:46;11.10;11.80
6210;DHT22;3138;52.550;13.148;2022-11-15T11:25:24;11.10;1.00
6210;DHT22;3138;52.550;13.148;2022-11-15T11:28:04;11.20;1.00
6210;DHT22;3138;52.550;13.148;2022-11-15T11:30:41;11.30;1.00
6210;DHT22;3138;52.550;13.148;2022-11-15T11:33:16;11.30;1.00
6210;DHT22;3138;52.550;13.148;2022-11-15T11:35:55;11.40;1.00
6210;DHT22;3138;52.550;13.148;2022-11-15T11:38:39;11.50;1.00
6210;DHT22;3138;52.550;13.148;2022-11-15T11:41:13;11.50;1.00
6210;DHT22;3138;52.550;13.148;2022-11-15T11:43:50;11.70;1.00
6210;DHT22;3138;52.550;13.148;2022-11-15T11:46:32;11.70;1.00
6210;DHT22;3138;52.550;13.148;2022-11-15T11:49:08;11.70;1.00
6210;DHT22;3138;52.550;13.148;2022-11-15T11:51:39;11.70;1.00
6210;DHT22;3138;52.550;13.148;2022-11-15T11:54:12;11.70;99.90
6210;DHT22;3138;52.550;13.148;2022-11-15T11:56:43;11.80;99.90
6210;DHT22;3138;52.550;13.148;2022-11-15T11:59:16;11.80;1.00
6210;DHT22;3138;52.550;13.148;2022-11-15T12:01:45;11.80;99.90
6210;DHT22;3138;52.550;13.148;2022-11-15T12:04:18;11.80;99.90
6210;DHT22;3138;52.550;13.148;2022-11-15T12:06:49;11.90;99.90
6210;DHT22;3138;52.550;13.148;2022-11-15T12:09:21;11.90;99.90
6210;DHT22;3138;52.550;13.148;2022-11-15T12:11:54;12.00;99.90
6210;DHT22;3138;52.550;13.148;2022-11-15T12:14:29;11.90;99.90
6210;DHT22;3138;52.550;13.148;2022-11-15T12:16:57;12.00;99.90
6210;DHT22;3138;52.550;13.148;2022-11-15T12:19:25;12.10;99.90
6210;DHT22;3138;52.550;13.148;2022-11-15T12:21:57;12.20;99.90
6210;DHT22;3138;52.550;13.148;2022-11-15T12:24:30;12.20;99.90
6210;DHT22;3138;52.550;13.148;2022-11-15T12:27:04;12.20;99.90
6210;DHT22;3138;52.550;13.148;2022-11-15T12:29:35;12.30;49.20
6210;DHT22;3138;52.550;13.148;2022-11-15T12:32:03;12.30;3.10
6210;DHT22;3138;52.550;13.148;2022-11-15T12:34:43;12.30;1.00
6210;DHT22;3138;52.550;13.148;2022-11-15T12:40:29;12.30;26.40
6210;DHT22;3138;52.550;13.148;2022-11-15T12:42:59;12.40;1.00
6210;DHT22;3138;52.550;13.148;2022-11-15T12:45:29;12.50;1.00
6210;DHT22;3138;52.550;13.148;2022-11-15T12:51:04;12.50;99.90
6210;DHT22;3138;52.550;13.148;2022-11-15T12:53:32;12.40;1.00
6210;DHT22;3138;52.550;13.148;2022-11-15T12:56:19;12.30;1.00
6210;DHT22;3138;52.550;13.148;2022-11-15T12:58:48;12.40;1.00
6210;DHT22;3138;52.550;13.148;2022-11-15T13:04:28;12.40;1.00
6210;DHT22;3138;52.550;13.148;2022-11-15T13:07:00;12.30;1.00
6210;DHT22;3138;52.550;13.148;2022-11-15T13:09:54;12.40;1.00
6210;DHT22;3138;52.550;13.148;2022-11-15T13:12:56;12.30;1.00
6210;DHT22;3138;52.550;13.148;2022-11-15T13:15:52;12.50;1.00
6210;DHT22;3138;52.550;13.148;2022-11-15T13:18:36;12.50;1.00
6210;DHT22;3138;52.550;13.148;2022-11-15T13:21:16;12.60;99.90
6210;DHT22;3138;52.550;13.148;2022-11-15T13:24:04;12.60;99.90
6210;DHT22;3138;52.550;13.148;2022-11-15T13:26:31;12.70;99.90
6210;DHT22;3138;52.550;13.148;2022-11-15T13:28:59;12.60;99.90
6210;DHT22;3138;52.550;13.148;2022-11-15T13:31:30;12.40;1.00
6210;DHT22;3138;52.550;13.148;2022-11-15T13:34:03;12.50;1.00
6210;DHT22;3138;52.550;13.148;2022-11-15T13:36:32;12.40;1.00
6210;DHT22;3138;52.550;13.148;2022-11-15T13:39:02;12.30;1.00
6210;DHT22;3138;52.550;13.148;2022-11-15T13:41:32;12.40;1.00
6210;DHT22;3138;52.550;13.148;2022-11-15T13:44:00;12.40;1.00
6210;DHT22;3138;52.550;13.148;2022-11-15T13:46:28;12.30;1.00
6210;DHT22;3138;52.550;13.148;2022-11-15T13:48:58;12.30;1.00
6210;DHT22;3138;52.550;13.148;2022-11-15T13:51:33;12.30;1.00
6210;DHT22;3138;52.550;13.148;2022-11-15T13:54:07;12.30;1.00
6210;DHT22;3138;52.550;13.148;2022-11-15T13:56:36;12.20;1.00
6210;DHT22;3138;52.550;13.148;2022-11-15T13:59:09;12.20;1.00
6210;DHT22;3138;52.550;13.148;2022-11-15T14:01:36;12.40;1.00
6210;DHT22;3138;52.550;13.148;2022-11-15T14:04:04;12.20;1.00
6210;DHT22;3138;52.550;13.148;2022-11-15T14:06:31;12.30;1.00
6210;DHT22;3138;52.550;13.148;2022-11-15T14:09:14;12.10;1.00
6210;DHT22;3138;52.550;13.148;2022-11-15T14:11:51;12.20;1.00
6210;DHT22;3138;52.550;13.148;2022-11-15T14:14:21;12.30;1.00
6210;DHT22;3138;52.550;13.148;2022-11-15T14:16:50;12.20;1.00
6210;DHT22;3138;52.550;13.148;2022-11-15T14:19:37;12.10;21.00
6210;DHT22;3138;52.550;13.148;2022-11-15T14:22:18;12.00;51.90
6210;DHT22;3138;52.550;13.148;2022-11-15T14:27:31;11.80;99.90
6210;DHT22;3138;52.550;13.148;2022-11-15T14:29:59;11.90;99.90
6210;DHT22;3138;52.550;13.148;2022-11-15T14:32:27;12.00;5.30
6210;DHT22;3138;52.550;13.148;2022-11-15T14:34:56;12.00;1.00
6210;DHT22;3138;52.550;13.148;2022-11-15T14:37:25;11.90;15.80
6210;DHT22;3138;52.550;13.148;2022-11-15T14:39:53;11.90;22.20
6210;DHT22;3138;52.550;13.148;2022-11-15T14:42:23;11.80;99.90
6210;DHT22;3138;52.550;13.148;2022-11-15T14:44:52;11.80;99.90
6210;DHT22;3138;52.550;13.148;2022-11-15T14:47:19;11.70;99.90
6210;DHT22;3138;52.550;13.148;2022-11-15T14:49:46;11.70;99.90
6210;DHT22;3138;52.550;13.148;2022-11-15T14:52:27;11.70;99.90
6210;DHT22;3138;52.550;13.148;2022-11-15T14:54:54;11.60;99.90
6210;DHT22;3138;52.550;13.148;2022-11-15T14:57:21;11.40;99.90
6210;DHT22;3138;52.550;13.148;2022-11-15T14:59:48;11.40;1.00
6210;DHT22;3138;52.550;13.148;2022-11-15T15:02:19;11.20;1.00
6210;DHT22;3138;52.550;13.148;2022-11-15T15:04:46;11.30;1.00
6210;DHT22;3138;52.550;13.148;2022-11-15T15:07:13;11.10;1.00
6210;DHT22;3138;52.550;13.148;2022-11-15T15:09:41;11.00;1.00
6210;DHT22;3138;52.550;13.148;2022-11-15T15:12:15;11.00;13.60
6210;DHT22;3138;52.550;13.148;2022-11-15T15:14:42;10.90;99.90
6210;DHT22;3138;52.550;13.148;2022-11-15T15:17:09;10.90;99.90
6210;DHT22;3138;52.550;13.148;2022-11-15T15:19:38;10.90;99.90
6210;DHT22;3138;52.550;13.148;2022-11-15T15:22:04;10.80;99.90
6210;DHT22;3138;52.550;13.148;2022-11-15T15:24:31;10.80;99.90
6210;DHT22;3138;52.550;13.148;2022-11-15T15:26:58;10.80;99.90
6210;DHT22;3138;52.550;13.148;2022-11-15T15:29:25;10.50;99.90
6210;DHT22;3138;52.550;13.148;2022-11-15T15:31:52;10.30;99.90
6210;DHT22;3138;52.550;13.148;2022-11-15T15:34:19;10.20;1.00
6210;DHT22;3138;52.550;13.148;2022-11-15T15:36:47;10.10;1.00
6210;DHT22;3138;52.550;13.148;2022-11-15T15:39:14;10.10;1.00
6210;DHT22;3138;52.550;13.148;2022-11-15T15:41:41;10.00;1.00
6210;DHT22;3138;52.550;13.148;2022-11-15T15:44:07;9.90;1.00
6210;DHT22;3138;52.550;13.148;2022-11-15T15:46:34;9.80;1.00
6210;DHT22;3138;52.550;13.148;2022-11-15T15:49:01;9.80;54.90
6210;DHT22;3138;52.550;13.148;2022-11-15T15:51:28;9.90;21.10
6210;DHT22;3138;52.550;13.148;2022-11-15T15:53:57;10.00;99.90
6210;DHT22;3138;52.550;13.148;2022-11-15T15:56:23;10.00;13.70
6210;DHT22;3138;52.550;13.148;2022-11-15T15:58:50;9.90;8.00
6210;DHT22;3138;52.550;13.148;2022-11-15T16:01:18;9.90;77.00
6210;DHT22;3138;52.550;13.148;2022-11-15T16:03:45;10.00;83.00
6210;DHT22;3138;52.550;13.148;2022-11-15T16:06:35;10.00;95.10
6210;DHT22;3138;52.550;13.148;2022-11-15T16:09:04;10.00;3.40
6210;DHT22;3138;52.550;13.148;2022-11-15T16:11:31;9.90;22.60
6210;DHT22;3138;52.550;13.148;2022-11-15T16:14:00;9.80;23.70
6210;DHT22;3138;52.550;13.148;2022-11-15T16:16:30;9.80;99.90
6210;DHT22;3138;52.550;13.148;2022-11-15T16:18:57;9.80;99.90
6210;DHT22;3138;52.550;13.148;2022-11-15T16:21:26;9.80;99.90
6210;DHT22;3138;52.550;13.148;2022-11-15T16:23:53;9.80;99.90
6210;DHT22;3138;52.550;13.148;2022-11-15T16:26:23;9.50;69.10
6210;DHT22;3138;52.550;13.148;2022-11-15T16:28:51;9.30;99.90
6210;DHT22;3138;52.550;13.148;2022-11-15T16:31:18;9.10;99.90
6210;DHT22;3138;52.550;13.148;2022-11-15T16:33:47;9.30;99.90
6210;DHT22;3138;52.550;13.148;2022-11-15T16:36:19;9.40;99.90
6210;DHT22;3138;52.550;13.148;2022-11-15T16:38:47;9.40;99.90
6210;DHT22;3138;52.550;13.148;2022-11-15T16:41:14;9.30;99.90